Disclaimer

Please do not use the information listed here in-flight or in-navigation, as they are not provided to us by the airports but are provided by volunteers, so they might be outdated.

Search


Regions


Airport information page

Radio informations:
NICE TWR - 118.7 MHz
NICE GND - 121.775 MHz
NICE ATIS - 129.6 MHz
NICE APP - 124.175 MHz

Airport informations:
Latitude: 43° 39' 30.28" N
Longitude: 007° 12' 57.14" E
Elevation: 12 feet - 4 meters
Operating hours: 24 hour operations
Operating agency: Civil government, landing fees and diplomatic clearance may be required
Timezone: UTC+1(+2DT) - Last Sunday in March to last Sunday in October
Fuel: Jet A1, without icing nhibitor.

100/130 MIL Spec, low lead, aviation gasoline (BLUE)

Runway information:
04R/22L - 9712 x 148 feet< - >2960 x 45 meters
04L/22R - 8995 x 148 feet< - >2742 x 45 meters

Recent METARs:
LFMN 180830Z 33011KT CAVOK 08/M01 Q1018 NOSIG
LFMN 180900Z 33011KT CAVOK 09/M00 Q1017 NOSIG
LFMN 180930Z 32011KT CAVOK 11/M00 Q1017 NOSIG

Airport on the map: